createdAt,value
2018-12-27T00:00:54.000Z,25.1
2018-12-27T00:01:54.000Z,25.2
2018-12-27T00:02:54.000Z,25.2
2018-12-27T00:04:54.000Z,25.3
2018-12-27T00:05:54.000Z,25.3
2018-12-27T00:06:54.000Z,25.3
2018-12-27T00:07:54.000Z,25.3
2018-12-27T00:09:54.000Z,25.3
2018-12-27T00:11:54.000Z,25.1
2018-12-27T00:12:54.000Z,25.1
2018-12-27T00:14:54.000Z,25.1
2018-12-27T00:16:54.000Z,25.1
2018-12-27T00:18:54.000Z,25
2018-12-27T00:19:54.000Z,25
2018-12-27T00:21:54.000Z,25
2018-12-27T00:22:54.000Z,25
2018-12-27T00:24:54.000Z,25
2018-12-27T00:25:54.000Z,25.1
2018-12-27T00:27:54.000Z,25.1
2018-12-27T00:28:54.000Z,25.1
2018-12-27T00:30:54.000Z,25.2
2018-12-27T00:32:54.000Z,25.1
2018-12-27T00:34:54.000Z,25
2018-12-27T00:35:54.000Z,24.9
2018-12-27T00:36:54.000Z,25
2018-12-27T00:38:55.000Z,25
2018-12-27T00:40:55.000Z,24.9
2018-12-27T00:42:55.000Z,24.9
2018-12-27T00:43:55.000Z,24.9
2018-12-27T00:45:55.000Z,25
2018-12-27T00:46:55.000Z,25
2018-12-27T00:48:55.000Z,25.1
2018-12-27T00:49:55.000Z,25.1
2018-12-27T00:51:55.000Z,25.1
2018-12-27T00:53:55.000Z,25.1
2018-12-27T00:55:55.000Z,25
2018-12-27T00:56:55.000Z,25
2018-12-27T00:58:39.000Z,25
2018-12-27T00:59:55.000Z,25
2018-12-27T01:00:55.000Z,25
2018-12-27T01:01:55.000Z,25.1
2018-12-27T01:03:39.000Z,25.2
2018-12-27T01:04:55.000Z,25.2
2018-12-27T01:06:39.000Z,25.1
2018-12-27T01:07:55.000Z,25.1
2018-12-27T01:09:55.000Z,25.1
2018-12-27T01:10:55.000Z,25.1
2018-12-27T01:12:55.000Z,25.1
2018-12-27T01:14:55.000Z,25.1
2018-12-27T01:15:55.000Z,25.1
2018-12-27T01:16:55.000Z,25.1
2018-12-27T01:17:55.000Z,25.2
2018-12-27T01:19:39.000Z,25.3
2018-12-27T01:20:55.000Z,25.3
2018-12-27T01:21:55.000Z,25.3
2018-12-27T01:23:55.000Z,25.2
2018-12-27T01:24:55.000Z,25.2
2018-12-27T01:25:55.000Z,25.3
2018-12-27T01:27:55.000Z,25.3
2018-12-27T01:29:55.000Z,25.3
2018-12-27T01:30:55.000Z,25.3
2018-12-27T01:32:55.000Z,25.1
2018-12-27T01:34:55.000Z,25.1
2018-12-27T01:35:55.000Z,25.1
2018-12-27T01:37:55.000Z,25.1
2018-12-27T01:39:55.000Z,25.1
2018-12-27T01:40:55.000Z,25.1
2018-12-27T01:41:54.000Z,25.1
2018-12-27T01:43:54.000Z,25.1
2018-12-27T01:45:54.000Z,25.1
2018-12-27T01:46:54.000Z,25.1
2018-12-27T01:47:54.000Z,25.1
2018-12-27T01:48:54.000Z,25.2
2018-12-27T01:50:54.000Z,25.3
2018-12-27T01:51:54.000Z,25.3
2018-12-27T01:52:54.000Z,25.3
2018-12-27T01:54:39.000Z,25.3
2018-12-27T01:55:54.000Z,25.2
2018-12-27T01:56:54.000Z,25.2
2018-12-27T01:58:54.000Z,25.2
2018-12-27T01:59:54.000Z,25.2
2018-12-27T02:00:54.000Z,25.2
2018-12-27T02:02:54.000Z,25.3
2018-12-27T02:03:54.000Z,25.3
2018-12-27T02:04:54.000Z,25.3
2018-12-27T02:06:54.000Z,25.3
2018-12-27T02:07:54.000Z,25.3
2018-12-27T02:09:54.000Z,25.3
2018-12-27T02:10:54.000Z,25.3
2018-12-27T02:12:54.000Z,25.3
2018-12-27T02:13:54.000Z,25.3
2018-12-27T02:15:54.000Z,25.3
2018-12-27T02:17:39.000Z,25.2
2018-12-27T02:18:54.000Z,25.2
2018-12-27T02:19:54.000Z,25.1
2018-12-27T02:20:54.000Z,25.2
2018-12-27T02:22:39.000Z,25.3
2018-12-27T02:23:54.000Z,25.2
2018-12-27T02:24:54.000Z,25.2
2018-12-27T02:26:54.000Z,25.2
2018-12-27T02:28:54.000Z,25.2
2018-12-27T02:30:54.000Z,25.1
2018-12-27T02:32:54.000Z,25
2018-12-27T02:34:54.000Z,24.9
2018-12-27T02:35:54.000Z,24.9
2018-12-27T02:37:54.000Z,24.9
2018-12-27T02:39:54.000Z,24.8
2018-12-27T02:40:54.000Z,24.8
2018-12-27T02:42:54.000Z,24.9
2018-12-27T02:44:54.000Z,24.9
2018-12-27T02:45:54.000Z,24.9
2018-12-27T02:47:54.000Z,24.9
2018-12-27T02:48:54.000Z,25
2018-12-27T02:49:54.000Z,25
2018-12-27T02:51:54.000Z,25.1
2018-12-27T02:53:54.000Z,25.1
2018-12-27T02:54:54.000Z,25.1
2018-12-27T02:56:54.000Z,25.1
2018-12-27T02:57:54.000Z,25.1
2018-12-27T02:58:54.000Z,25.1
2018-12-27T02:59:54.000Z,25.2
2018-12-27T03:01:54.000Z,25.2
2018-12-27T03:03:39.000Z,25.2
2018-12-27T03:04:54.000Z,25
2018-12-27T03:05:54.000Z,25
2018-12-27T03:07:54.000Z,24.9
2018-12-27T03:09:54.000Z,24.9
2018-12-27T03:11:54.000Z,24.9
2018-12-27T03:13:54.000Z,24.9
2018-12-27T03:14:54.000Z,24.9
2018-12-27T03:16:54.000Z,25
2018-12-27T03:18:54.000Z,25
2018-12-27T03:20:54.000Z,24.9
2018-12-27T03:22:54.000Z,24.8
2018-12-27T03:23:54.000Z,24.8
2018-12-27T03:24:54.000Z,24.9
2018-12-27T03:26:54.000Z,25
2018-12-27T03:28:54.000Z,25
2018-12-27T03:29:54.000Z,25
2018-12-27T03:31:54.000Z,25
2018-12-27T03:33:54.000Z,25
2018-12-27T03:34:54.000Z,25
2018-12-27T03:35:54.000Z,25
2018-12-27T03:37:54.000Z,25
2018-12-27T03:39:54.000Z,25
2018-12-27T03:40:54.000Z,25.1
2018-12-27T03:42:54.000Z,25.1
2018-12-27T03:44:54.000Z,25
2018-12-27T03:46:54.000Z,24.9
2018-12-27T03:47:54.000Z,24.9
2018-12-27T03:49:54.000Z,25
2018-12-27T03:51:54.000Z,25
2018-12-27T03:53:54.000Z,25
2018-12-27T03:55:39.000Z,25
2018-12-27T03:56:54.000Z,24.9
2018-12-27T03:58:54.000Z,24.9
2018-12-27T04:00:54.000Z,24.9
2018-12-27T04:02:54.000Z,24.9
2018-12-27T04:03:54.000Z,24.8
2018-12-27T04:05:54.000Z,24.8
2018-12-27T04:06:54.000Z,24.8
2018-12-27T04:07:54.000Z,24.9
2018-12-27T04:08:54.000Z,24.9
2018-12-27T04:09:54.000Z,25
2018-12-27T04:11:54.000Z,25.1
2018-12-27T04:13:54.000Z,25.1
2018-12-27T04:15:54.000Z,25
2018-12-27T04:17:54.000Z,24.9
2018-12-27T04:18:54.000Z,24.9
2018-12-27T04:20:54.000Z,24.9
2018-12-27T04:21:54.000Z,24.9
2018-12-27T04:23:54.000Z,25
2018-12-27T04:24:54.000Z,25
2018-12-27T04:25:54.000Z,25
2018-12-27T04:26:54.000Z,25.1
2018-12-27T04:28:54.000Z,25.1
2018-12-27T04:29:54.000Z,25.1
2018-12-27T04:31:54.000Z,25.1
2018-12-27T04:32:54.000Z,25.1
2018-12-27T04:34:54.000Z,25.1
2018-12-27T04:36:54.000Z,25.1
2018-12-27T04:37:54.000Z,25.1
2018-12-27T04:38:54.000Z,25.1
2018-12-27T04:40:54.000Z,25
2018-12-27T04:42:54.000Z,25
2018-12-27T04:44:54.000Z,25
2018-12-27T04:46:54.000Z,24.9
2018-12-27T04:48:39.000Z,24.8
2018-12-27T04:49:54.000Z,24.8
2018-12-27T04:51:54.000Z,24.8
2018-12-27T04:52:54.000Z,24.8
2018-12-27T04:54:54.000Z,24.8
2018-12-27T04:55:54.000Z,24.9
2018-12-27T04:57:54.000Z,24.9
2018-12-27T04:59:54.000Z,24.9
2018-12-27T05:00:54.000Z,25
2018-12-27T05:02:39.000Z,25
2018-12-27T05:03:54.000Z,24.9
2018-12-27T05:05:54.000Z,24.8
2018-12-27T05:06:54.000Z,24.9
2018-12-27T05:08:54.000Z,24.9
2018-12-27T05:10:54.000Z,24.9
2018-12-27T05:11:54.000Z,24.9
2018-12-27T05:13:54.000Z,24.9
2018-12-27T05:15:54.000Z,25
2018-12-27T05:17:54.000Z,24.9
2018-12-27T05:18:54.000Z,25
2018-12-27T05:20:54.000Z,25
2018-12-27T05:22:54.000Z,25
2018-12-27T05:24:54.000Z,25
2018-12-27T05:25:54.000Z,25
2018-12-27T05:26:54.000Z,25
2018-12-27T05:28:54.000Z,25.1
2018-12-27T05:29:54.000Z,25.1
2018-12-27T05:31:54.000Z,25.1
2018-12-27T05:32:54.000Z,25.1
2018-12-27T05:34:54.000Z,25.1
2018-12-27T05:35:54.000Z,25.1
2018-12-27T05:36:54.000Z,25.1
2018-12-27T05:38:39.000Z,25.1
2018-12-27T05:39:54.000Z,25.1
2018-12-27T05:40:54.000Z,25.1
2018-12-27T05:42:54.000Z,25
2018-12-27T05:43:54.000Z,25
2018-12-27T05:45:54.000Z,25
2018-12-27T05:47:54.000Z,25
2018-12-27T05:49:54.000Z,25
2018-12-27T05:51:54.000Z,24.9
2018-12-27T05:52:54.000Z,24.8
2018-12-27T05:53:54.000Z,24.9
2018-12-27T05:55:54.000Z,25
2018-12-27T05:57:54.000Z,25
2018-12-27T05:58:54.000Z,25
2018-12-27T05:59:54.000Z,25
2018-12-27T06:01:54.000Z,25
2018-12-27T06:02:54.000Z,25
2018-12-27T06:04:54.000Z,25
2018-12-27T06:06:54.000Z,25
2018-12-27T06:07:54.000Z,25
2018-12-27T06:08:54.000Z,25
2018-12-27T06:10:54.000Z,25
2018-12-27T06:12:54.000Z,25
2018-12-27T06:14:54.000Z,25
2018-12-27T06:15:54.000Z,25
2018-12-27T06:16:54.000Z,25
2018-12-27T06:17:54.000Z,25.1
2018-12-27T06:19:54.000Z,25.1
2018-12-27T06:21:54.000Z,25.1
2018-12-27T06:23:54.000Z,25
2018-12-27T06:24:54.000Z,25
2018-12-27T06:26:54.000Z,25
2018-12-27T06:27:54.000Z,25
2018-12-27T06:29:54.000Z,25
2018-12-27T06:31:54.000Z,25
2018-12-27T06:32:54.000Z,25
2018-12-27T06:34:39.000Z,25
2018-12-27T06:36:54.000Z,24.8
2018-12-27T06:38:54.000Z,24.8
2018-12-27T06:39:54.000Z,24.8
2018-12-27T06:40:54.000Z,24.9
2018-12-27T06:42:54.000Z,24.9
2018-12-27T06:44:54.000Z,24.9
2018-12-27T06:45:54.000Z,24.8
2018-12-27T06:47:54.000Z,24.9
2018-12-27T06:48:54.000Z,24.9
2018-12-27T06:50:54.000Z,25
2018-12-27T06:51:54.000Z,25
2018-12-27T06:53:54.000Z,25
2018-12-27T06:54:54.000Z,25.1
2018-12-27T06:56:54.000Z,25
2018-12-27T06:58:54.000Z,25
2018-12-27T06:59:54.000Z,24.9
2018-12-27T07:00:54.000Z,25
2018-12-27T07:02:54.000Z,25
2018-12-27T07:03:54.000Z,25.1
2018-12-27T07:05:54.000Z,25.1
2018-12-27T07:07:54.000Z,25.1
2018-12-27T07:08:54.000Z,25.1
2018-12-27T07:10:54.000Z,25.1
2018-12-27T07:11:54.000Z,25.1
2018-12-27T07:13:54.000Z,25.1
2018-12-27T07:15:54.000Z,25.1
2018-12-27T07:17:54.000Z,25
2018-12-27T07:19:54.000Z,25
2018-12-27T07:20:54.000Z,25
2018-12-27T07:22:54.000Z,25
2018-12-27T07:23:54.000Z,25
2018-12-27T07:25:54.000Z,25.1
2018-12-27T07:26:54.000Z,25.1
2018-12-27T07:28:54.000Z,25.2
2018-12-27T07:29:54.000Z,25.2
2018-12-27T07:31:54.000Z,25.2
2018-12-27T07:32:54.000Z,25.2
2018-12-27T07:34:54.000Z,25.2
2018-12-27T07:36:54.000Z,25.1
2018-12-27T07:37:54.000Z,25.1
2018-12-27T07:39:54.000Z,25.1
2018-12-27T07:41:54.000Z,25.1
2018-12-27T07:43:54.000Z,25.1
2018-12-27T07:44:54.000Z,25.1
2018-12-27T07:46:54.000Z,25.1
2018-12-27T07:47:54.000Z,25.2
2018-12-27T07:49:54.000Z,25.2
2018-12-27T07:50:54.000Z,25.3
2018-12-27T07:52:54.000Z,25.3
2018-12-27T07:54:54.000Z,25.2
2018-12-27T07:55:54.000Z,25.2
2018-12-27T07:56:54.000Z,25.3
2018-12-27T07:58:54.000Z,25.3
2018-12-27T07:59:54.000Z,25.3
2018-12-27T08:01:54.000Z,25.4
2018-12-27T08:03:54.000Z,25.5
2018-12-27T08:04:54.000Z,25.5
2018-12-27T08:06:54.000Z,25.6
2018-12-27T08:07:54.000Z,25.6
2018-12-27T08:09:54.000Z,25.6
2018-12-27T08:10:54.000Z,25.6
2018-12-27T08:11:54.000Z,25.7
2018-12-27T08:13:54.000Z,25.7
2018-12-27T08:15:54.000Z,25.7
2018-12-27T08:17:54.000Z,25.6
2018-12-27T08:19:54.000Z,25.5
2018-12-27T08:21:54.000Z,25.5
2018-12-27T08:22:54.000Z,25.5
2018-12-27T08:24:54.000Z,25.5
2018-12-27T08:26:54.000Z,25.5
2018-12-27T08:27:54.000Z,25.6
2018-12-27T08:29:54.000Z,25.6
2018-12-27T08:30:54.000Z,25.7
2018-12-27T08:32:54.000Z,25.7
2018-12-27T08:33:54.000Z,25.7
2018-12-27T08:35:54.000Z,25.8
2018-12-27T08:36:54.000Z,25.8
2018-12-27T08:37:54.000Z,25.8
2018-12-27T08:38:54.000Z,25.8
2018-12-27T08:40:39.000Z,25.8
2018-12-27T08:41:54.000Z,25.8
2018-12-27T08:42:54.000Z,25.8
2018-12-27T08:44:54.000Z,25.8
2018-12-27T08:45:54.000Z,25.8
2018-12-27T08:47:54.000Z,25.8
2018-12-27T08:49:54.000Z,25.8
2018-12-27T08:50:54.000Z,25.8
2018-12-27T08:52:39.000Z,25.8
2018-12-27T08:54:54.000Z,25.6
2018-12-27T08:55:54.000Z,25.6
2018-12-27T08:57:54.000Z,25.5
2018-12-27T08:58:54.000Z,25.6
2018-12-27T09:36:51.000Z,24
2018-12-27T09:38:37.000Z,24.2
2018-12-27T09:39:37.000Z,24.4
2018-12-27T09:40:37.000Z,24.6
2018-12-27T09:42:22.000Z,25
2018-12-27T09:43:37.000Z,25.2
2018-12-27T09:45:37.000Z,25.5
2018-12-27T09:46:37.000Z,25.6
2018-12-27T09:47:37.000Z,25.7
2018-12-27T09:49:37.000Z,25.9
2018-12-27T09:51:37.000Z,26
2018-12-27T09:52:37.000Z,26
2018-12-27T09:54:37.000Z,26.2
2018-12-27T09:56:37.000Z,26.2
2018-12-27T09:57:37.000Z,26.3
2018-12-27T09:59:37.000Z,26.4
2018-12-27T10:01:37.000Z,26.4
2018-12-27T10:02:37.000Z,26.4
2018-12-27T10:04:22.000Z,26.6
2018-12-27T10:05:37.000Z,26.6
2018-12-27T10:06:37.000Z,26.7
2018-12-27T10:07:37.000Z,26.8
2018-12-27T10:09:38.000Z,26.8
2018-12-27T10:11:38.000Z,26.8
2018-12-27T10:13:38.000Z,26.7
2018-12-27T10:14:38.000Z,26.6
2018-12-27T10:15:38.000Z,26.6
2018-12-27T10:17:38.000Z,26.6
2018-12-27T10:19:38.000Z,26.5
2018-12-27T10:21:23.000Z,26.4
2018-12-27T10:22:38.000Z,26.3
2018-12-27T10:23:38.000Z,26.3
2018-12-27T10:25:38.000Z,26.3
2018-12-27T10:27:38.000Z,26.2
2018-12-27T10:29:38.000Z,26.2
2018-12-27T10:31:38.000Z,26.1
2018-12-27T10:33:38.000Z,26.1
2018-12-27T10:34:38.000Z,26.1
2018-12-27T10:36:38.000Z,26.1
2018-12-27T10:38:23.000Z,26.1
2018-12-27T10:39:38.000Z,26.1
2018-12-27T10:40:38.000Z,26.1
2018-12-27T10:42:38.000Z,26.1
2018-12-27T10:44:38.000Z,26.1
2018-12-27T10:45:38.000Z,26.1
2018-12-27T10:47:38.000Z,26.1
2018-12-27T10:49:23.000Z,26.1
2018-12-27T10:50:38.000Z,26
2018-12-27T10:51:38.000Z,26
2018-12-27T10:53:38.000Z,26.1
2018-12-27T10:55:38.000Z,26.1
2018-12-27T10:57:38.000Z,26
2018-12-27T10:59:38.000Z,26
2018-12-27T11:01:23.000Z,26
2018-12-27T11:02:38.000Z,25.9
2018-12-27T11:04:23.000Z,25.9
2018-12-27T11:05:38.000Z,25.8
2018-12-27T11:07:23.000Z,25.8
2018-12-27T11:08:38.000Z,25.8
2018-12-27T11:10:38.000Z,25.8
2018-12-27T11:11:38.000Z,25.8
2018-12-27T11:12:38.000Z,25.9
2018-12-27T11:14:37.000Z,25.9
2018-12-27T11:16:37.000Z,25.9
2018-12-27T11:18:37.000Z,25.8
2018-12-27T11:20:37.000Z,25.8
2018-12-27T11:21:37.000Z,25.8
2018-12-27T11:23:37.000Z,25.9
2018-12-27T11:24:37.000Z,25.9
2018-12-27T11:25:37.000Z,25.9
2018-12-27T11:26:37.000Z,26
2018-12-27T11:28:37.000Z,26
2018-12-27T11:29:37.000Z,26
2018-12-27T11:31:22.000Z,26
2018-12-27T11:32:37.000Z,25.9
2018-12-27T11:34:37.000Z,25.9
2018-12-27T11:35:37.000Z,25.9
2018-12-27T11:37:37.000Z,25.9
2018-12-27T11:38:37.000Z,25.9
2018-12-27T11:40:37.000Z,26
2018-12-27T11:42:37.000Z,25.9
2018-12-27T11:44:37.000Z,25.9
2018-12-27T11:46:37.000Z,25.9
2018-12-27T11:47:37.000Z,25.9
2018-12-27T11:49:37.000Z,25.9
2018-12-27T11:50:37.000Z,25.9
2018-12-27T11:52:37.000Z,25.9
2018-12-27T11:53:37.000Z,25.9
2018-12-27T11:55:37.000Z,26
2018-12-27T11:57:37.000Z,26
2018-12-27T11:58:37.000Z,26
2018-12-27T12:00:37.000Z,26
2018-12-27T12:01:37.000Z,26
2018-12-27T12:03:37.000Z,26
2018-12-27T12:04:37.000Z,26
2018-12-27T12:05:37.000Z,26
2018-12-27T12:06:37.000Z,26.1
2018-12-27T12:07:37.000Z,26.1
2018-12-27T12:08:37.000Z,26.2
2018-12-27T12:10:37.000Z,26.2
2018-12-27T12:11:37.000Z,26.2
2018-12-27T12:13:37.000Z,26.2
2018-12-27T12:14:37.000Z,26.2
2018-12-27T12:15:37.000Z,26.2
2018-12-27T12:17:37.000Z,26.2
2018-12-27T12:19:37.000Z,26.2
2018-12-27T12:21:37.000Z,26.1
2018-12-27T12:23:37.000Z,26.1
2018-12-27T12:24:37.000Z,26.1
2018-12-27T12:26:37.000Z,26.2
2018-12-27T12:27:37.000Z,26.3
2018-12-27T12:28:37.000Z,26.4
2018-12-27T12:30:37.000Z,26.5
2018-12-27T12:31:37.000Z,26.5
2018-12-27T12:32:37.000Z,26.6
2018-12-27T12:33:37.000Z,26.7
2018-12-27T12:34:37.000Z,26.7
2018-12-27T12:36:37.000Z,26.7
2018-12-27T12:38:37.000Z,26.6
2018-12-27T12:39:37.000Z,26.6
2018-12-27T12:40:37.000Z,26.7
2018-12-27T12:41:37.000Z,26.7
2018-12-27T12:43:37.000Z,26.7
2018-12-27T12:44:37.000Z,26.7
2018-12-27T12:45:37.000Z,26.8
2018-12-27T12:47:37.000Z,26.9
2018-12-27T12:48:37.000Z,26.9
2018-12-27T12:50:37.000Z,26.9
2018-12-27T12:51:37.000Z,27
2018-12-27T12:52:37.000Z,27
2018-12-27T12:54:37.000Z,26.9
2018-12-27T12:55:37.000Z,26.8
2018-12-27T12:56:37.000Z,26.9
2018-12-27T12:58:37.000Z,27
2018-12-27T12:59:37.000Z,27
2018-12-27T13:01:37.000Z,27.1
2018-12-27T13:02:37.000Z,27.1
2018-12-27T13:03:37.000Z,27.1
2018-12-27T13:04:37.000Z,27.2
2018-12-27T13:06:37.000Z,27.2
2018-12-27T13:07:37.000Z,27.2
2018-12-27T13:09:37.000Z,27.1
2018-12-27T13:11:37.000Z,27.1
2018-12-27T13:13:22.000Z,27
2018-12-27T13:14:37.000Z,26.9
2018-12-27T13:15:37.000Z,26.9
2018-12-27T13:17:37.000Z,26.9
2018-12-27T13:19:37.000Z,26.9
2018-12-27T13:20:38.000Z,26.8
2018-12-27T13:22:38.000Z,26.8
2018-12-27T13:23:38.000Z,26.8
2018-12-27T13:25:38.000Z,26.8
2018-12-27T13:27:38.000Z,26.7
2018-12-27T13:28:38.000Z,26.6
2018-12-27T13:29:38.000Z,26.7
2018-12-27T13:31:38.000Z,26.6
2018-12-27T13:33:38.000Z,26.6
2018-12-27T13:34:38.000Z,26.5
2018-12-27T13:36:23.000Z,26.4
2018-12-27T13:37:38.000Z,26.3
2018-12-27T13:38:38.000Z,26.2
2018-12-27T13:39:38.000Z,26.3
2018-12-27T13:41:22.000Z,26.4
2018-12-27T13:42:38.000Z,26.3
2018-12-27T13:43:38.000Z,26.4
2018-12-27T13:45:38.000Z,26.4
2018-12-27T13:47:38.000Z,26.4
2018-12-27T13:48:38.000Z,26.4
2018-12-27T13:50:38.000Z,26.4
2018-12-27T13:51:38.000Z,26.4
2018-12-27T13:53:38.000Z,26.4
2018-12-27T13:54:38.000Z,26.4
2018-12-27T13:56:38.000Z,26.4
2018-12-27T13:57:38.000Z,26.4
2018-12-27T13:59:38.000Z,26.5
2018-12-27T14:01:38.000Z,26.4
2018-12-27T14:02:38.000Z,26.5
2018-12-27T14:04:38.000Z,26.5
2018-12-27T14:06:38.000Z,26.4
2018-12-27T14:07:38.000Z,26.4
2018-12-27T14:09:38.000Z,26.4
2018-12-27T14:11:38.000Z,26.3
2018-12-27T14:12:38.000Z,26.3
2018-12-27T14:14:38.000Z,26.3
2018-12-27T14:15:38.000Z,26.3
2018-12-27T14:17:38.000Z,26.4
2018-12-27T14:19:38.000Z,26.3
2018-12-27T14:20:38.000Z,26.3
2018-12-27T14:22:38.000Z,26.2
2018-12-27T14:24:38.000Z,26.2
2018-12-27T14:26:38.000Z,26
2018-12-27T14:27:38.000Z,26
2018-12-27T14:29:38.000Z,26.1
2018-12-27T14:30:38.000Z,26.1
2018-12-27T14:31:38.000Z,26.2
2018-12-27T14:33:38.000Z,26.2
2018-12-27T14:35:38.000Z,26.1
2018-12-27T14:37:38.000Z,26
2018-12-27T14:38:38.000Z,26.1
2018-12-27T14:40:22.000Z,26.1
2018-12-27T14:41:38.000Z,26.1
2018-12-27T14:42:38.000Z,26.1
2018-12-27T14:43:38.000Z,26.2
2018-12-27T14:45:22.000Z,26.3
2018-12-27T14:46:38.000Z,26.2
2018-12-27T14:48:38.000Z,26.2
2018-12-27T14:49:38.000Z,26.2
2018-12-27T14:50:38.000Z,26.2
2018-12-27T14:52:38.000Z,26.2
2018-12-27T14:54:38.000Z,26.2
2018-12-27T14:56:38.000Z,26.1
2018-12-27T14:57:38.000Z,26.1
2018-12-27T14:58:38.000Z,26.1
2018-12-27T14:59:38.000Z,26.2
2018-12-27T15:01:38.000Z,26.2
2018-12-27T15:03:38.000Z,26.2
2018-12-27T15:05:38.000Z,26.1
2018-12-27T15:07:38.000Z,26
2018-12-27T15:08:38.000Z,26
2018-12-27T15:10:22.000Z,26
2018-12-27T15:11:38.000Z,25.9
2018-12-27T15:13:38.000Z,25.9
2018-12-27T15:15:22.000Z,25.8
2018-12-27T15:16:38.000Z,25.8
2018-12-27T15:17:38.000Z,25.8
2018-12-27T15:18:38.000Z,25.9
2018-12-27T15:19:38.000Z,25.9
2018-12-27T15:20:38.000Z,26
2018-12-27T15:22:38.000Z,26.1
2018-12-27T15:24:38.000Z,26
2018-12-27T15:26:22.000Z,25.9
2018-12-27T15:27:38.000Z,25.8
2018-12-27T15:28:37.000Z,25.8
2018-12-27T15:30:37.000Z,25.8
2018-12-27T15:31:37.000Z,25.9
2018-12-27T15:32:37.000Z,25.9
2018-12-27T15:34:37.000Z,25.9
2018-12-27T15:35:37.000Z,26
2018-12-27T15:37:37.000Z,25.9
2018-12-27T15:38:37.000Z,25.9
2018-12-27T15:39:37.000Z,26
2018-12-27T15:41:37.000Z,26
2018-12-27T15:43:37.000Z,25.9
2018-12-27T15:45:37.000Z,25.8
2018-12-27T15:46:37.000Z,25.8
2018-12-27T15:47:37.000Z,25.8
2018-12-27T15:49:37.000Z,25.9
2018-12-27T15:51:37.000Z,25.9
2018-12-27T15:53:37.000Z,25.9
2018-12-27T15:54:37.000Z,25.9
2018-12-27T15:56:37.000Z,25.8
2018-12-27T15:58:23.000Z,25.7
2018-12-27T15:59:37.000Z,25.7
2018-12-27T16:00:37.000Z,25.7
2018-12-27T16:02:37.000Z,25.7
2018-12-27T16:04:37.000Z,25.7
2018-12-27T16:05:37.000Z,25.7
2018-12-27T16:06:37.000Z,25.8
2018-12-27T16:08:37.000Z,25.8
2018-12-27T16:10:37.000Z,25.8
2018-12-27T16:11:37.000Z,25.8
2018-12-27T16:13:37.000Z,25.8
2018-12-27T16:14:37.000Z,25.9
2018-12-27T16:16:37.000Z,25.8
2018-12-27T16:17:37.000Z,25.8
2018-12-27T16:19:37.000Z,25.8
2018-12-27T16:21:37.000Z,25.8
2018-12-27T16:22:37.000Z,25.8
2018-12-27T16:24:22.000Z,25.8
2018-12-27T16:25:37.000Z,25.8
2018-12-27T16:26:37.000Z,25.8
2018-12-27T16:28:37.000Z,25.9
2018-12-27T16:30:37.000Z,25.9
2018-12-27T16:32:37.000Z,25.8
2018-12-27T16:33:37.000Z,25.7
2018-12-27T16:35:37.000Z,25.8
2018-12-27T16:36:37.000Z,25.8
2018-12-27T16:37:37.000Z,25.8
2018-12-27T16:38:37.000Z,25.9
2018-12-27T16:39:37.000Z,26
2018-12-27T16:41:37.000Z,26
2018-12-27T16:43:37.000Z,25.9
2018-12-27T16:44:37.000Z,25.9
2018-12-27T16:46:37.000Z,25.9
2018-12-27T16:47:37.000Z,25.9
2018-12-27T16:49:37.000Z,26
2018-12-27T16:51:37.000Z,25.9
2018-12-27T16:53:37.000Z,25.9
2018-12-27T16:55:37.000Z,25.8
2018-12-27T16:56:37.000Z,25.8
2018-12-27T16:58:22.000Z,25.9
2018-12-27T16:59:37.000Z,25.8
2018-12-27T17:00:37.000Z,25.9
2018-12-27T17:01:37.000Z,25.9
2018-12-27T17:03:37.000Z,26
2018-12-27T17:04:37.000Z,26
2018-12-27T17:06:37.000Z,26
2018-12-27T17:07:37.000Z,26
2018-12-27T17:08:37.000Z,26
2018-12-27T17:10:37.000Z,26.1
2018-12-27T17:11:37.000Z,26
2018-12-27T17:13:37.000Z,26
2018-12-27T17:15:37.000Z,26
2018-12-27T17:17:37.000Z,25.9
2018-12-27T17:18:37.000Z,25.9
2018-12-27T17:19:37.000Z,26
2018-12-27T17:20:37.000Z,26
2018-12-27T17:22:37.000Z,26
2018-12-27T17:24:37.000Z,26
2018-12-27T17:25:37.000Z,26
2018-12-27T17:27:37.000Z,26
2018-12-27T17:29:37.000Z,25.9
2018-12-27T17:31:37.000Z,25.8
2018-12-27T17:32:37.000Z,25.7
2018-12-27T17:34:37.000Z,25.7
2018-12-27T17:35:38.000Z,25.7
2018-12-27T17:37:38.000Z,25.7
2018-12-27T17:39:38.000Z,25.7
2018-12-27T17:40:38.000Z,25.8
2018-12-27T17:42:38.000Z,25.8
2018-12-27T17:43:38.000Z,25.8
2018-12-27T17:45:38.000Z,25.9
2018-12-27T17:46:38.000Z,25.9
2018-12-27T17:48:38.000Z,25.9
2018-12-27T17:49:38.000Z,25.9
2018-12-27T17:50:38.000Z,26
2018-12-27T17:52:23.000Z,26
2018-12-27T17:53:38.000Z,25.9
2018-12-27T17:54:38.000Z,25.8
2018-12-27T17:55:38.000Z,25.8
2018-12-27T17:57:38.000Z,25.9
2018-12-27T17:58:38.000Z,25.9
2018-12-27T18:00:38.000Z,25.9
2018-12-27T18:01:38.000Z,25.9
2018-12-27T18:03:38.000Z,25.9
2018-12-27T18:05:38.000Z,25.8
2018-12-27T18:06:38.000Z,25.8
2018-12-27T18:08:38.000Z,25.8
2018-12-27T18:09:38.000Z,25.8
2018-12-27T18:11:38.000Z,25.7
2018-12-27T18:12:38.000Z,25.7
2018-12-27T18:13:38.000Z,25.8
2018-12-27T18:15:38.000Z,25.8
2018-12-27T18:17:38.000Z,25.8
2018-12-27T18:18:38.000Z,25.8
2018-12-27T18:20:38.000Z,25.8
2018-12-27T18:22:38.000Z,25.8
2018-12-27T18:24:23.000Z,25.8
2018-12-27T18:25:38.000Z,25.7
2018-12-27T18:26:38.000Z,25.7
2018-12-27T18:28:23.000Z,25.7
2018-12-27T18:29:38.000Z,25.7
2018-12-27T18:31:38.000Z,25.6
2018-12-27T18:32:38.000Z,25.6
2018-12-27T18:34:38.000Z,25.7
2018-12-27T18:35:38.000Z,25.7
2018-12-27T18:37:38.000Z,25.7
2018-12-27T18:38:38.000Z,25.7
2018-12-27T18:39:37.000Z,25.7
2018-12-27T18:41:37.000Z,25.8
2018-12-27T18:42:37.000Z,25.8
2018-12-27T18:43:37.000Z,25.8
2018-12-27T18:45:37.000Z,25.9
2018-12-27T18:47:37.000Z,25.9
2018-12-27T18:49:22.000Z,25.9
2018-12-27T18:50:37.000Z,25.8
2018-12-27T18:51:37.000Z,25.8
2018-12-27T18:53:37.000Z,25.8
2018-12-27T18:54:37.000Z,25.8
2018-12-27T18:56:37.000Z,25.8
2018-12-27T18:58:37.000Z,25.8
2018-12-27T18:59:37.000Z,25.8
2018-12-27T19:00:37.000Z,25.8
2018-12-27T19:02:37.000Z,25.9
2018-12-27T19:04:37.000Z,25.7
2018-12-27T19:06:37.000Z,25.6
2018-12-27T19:08:37.000Z,25.6
2018-12-27T19:09:37.000Z,25.6
2018-12-27T19:10:37.000Z,25.7
2018-12-27T19:12:37.000Z,25.8
2018-12-27T19:13:37.000Z,25.8
2018-12-27T19:15:22.000Z,25.9
2018-12-27T19:16:37.000Z,25.8
2018-12-27T19:18:37.000Z,25.8
2018-12-27T19:20:37.000Z,25.6
2018-12-27T19:22:22.000Z,25.6
2018-12-27T19:23:37.000Z,25.6
2018-12-27T19:25:37.000Z,25.5
2018-12-27T19:27:37.000Z,25.5
2018-12-27T19:29:37.000Z,25.5
2018-12-27T19:30:37.000Z,25.5
2018-12-27T19:32:37.000Z,25.6
2018-12-27T19:33:37.000Z,25.6
2018-12-27T19:34:37.000Z,25.6
2018-12-27T19:36:37.000Z,25.7
2018-12-27T19:37:37.000Z,25.8
2018-12-27T19:38:37.000Z,25.8
2018-12-27T19:39:37.000Z,25.8
2018-12-27T19:41:37.000Z,25.8
2018-12-27T19:43:37.000Z,25.8
2018-12-27T19:45:37.000Z,25.7
2018-12-27T19:46:37.000Z,25.7
2018-12-27T19:47:37.000Z,25.7
2018-12-27T19:49:37.000Z,25.8
2018-12-27T19:51:37.000Z,25.7
2018-12-27T19:53:37.000Z,25.6
2018-12-27T19:55:37.000Z,25.5
2018-12-27T19:57:37.000Z,25.5
2018-12-27T19:59:37.000Z,25.4
2018-12-27T20:01:37.000Z,25.4
2018-12-27T20:03:37.000Z,25.3
2018-12-27T20:04:37.000Z,25.3
2018-12-27T20:05:37.000Z,25.3
2018-12-27T20:06:37.000Z,25.4
2018-12-27T20:07:37.000Z,25.5
2018-12-27T20:09:37.000Z,25.6
2018-12-27T20:11:37.000Z,25.6
2018-12-27T20:12:37.000Z,25.7
2018-12-27T20:14:37.000Z,25.7
2018-12-27T20:15:37.000Z,25.7
2018-12-27T20:17:37.000Z,25.7
2018-12-27T20:19:37.000Z,25.5
2018-12-27T20:21:22.000Z,25.5
2018-12-27T20:22:37.000Z,25.4
2018-12-27T20:24:37.000Z,25.4
2018-12-27T20:26:37.000Z,25.4
2018-12-27T20:28:37.000Z,25.4
2018-12-27T20:30:37.000Z,25.4
2018-12-27T20:32:22.000Z,25.3
2018-12-27T20:33:37.000Z,25.3
2018-12-27T20:35:37.000Z,25.4
2018-12-27T20:37:37.000Z,25.4
2018-12-27T20:39:37.000Z,25.4
2018-12-27T20:41:37.000Z,25.4
2018-12-27T20:43:37.000Z,25.4
2018-12-27T20:44:37.000Z,25.4
2018-12-27T20:45:37.000Z,25.5
2018-12-27T20:46:38.000Z,25.5
2018-12-27T20:48:38.000Z,25.5
2018-12-27T20:49:38.000Z,25.5
2018-12-27T20:51:38.000Z,25.5
2018-12-27T20:52:38.000Z,25.5
2018-12-27T20:54:38.000Z,25.6
2018-12-27T20:55:38.000Z,25.6
2018-12-27T20:57:38.000Z,25.6
2018-12-27T20:58:38.000Z,25.6
2018-12-27T21:00:38.000Z,25.6
2018-12-27T21:01:38.000Z,25.6
2018-12-27T21:03:38.000Z,25.5
2018-12-27T21:05:38.000Z,25.5
2018-12-27T21:06:38.000Z,25.5
2018-12-27T21:08:38.000Z,25.5
2018-12-27T21:10:38.000Z,25.5
2018-12-27T21:12:38.000Z,25.4
2018-12-27T21:14:38.000Z,25.3
2018-12-27T21:15:38.000Z,25.3
2018-12-27T21:17:23.000Z,25.4
2018-12-27T21:18:38.000Z,25.3
2018-12-27T21:19:38.000Z,25.4
2018-12-27T21:20:38.000Z,25.4
2018-12-27T21:21:38.000Z,25.5